Time;durP1;ratioP1;P1;durP2;ratioP2;P2;SDS_P1;SDS_P2;PMS_P1;PMS_P2;Temp;Humidity;BMP_temperature;BMP_pressure;BME280_temperature;BME280_humidity;BME280_pressure;Samples;Min_cycle;Max_cycle;Signal;HPM_P1;HPM_P2
2024/01/12 00:02:01;;;;;;;54.90;30.20;;;;;;;-3.71;100.00;97178.54;108517;1279;25388;-86
2024/01/12 00:04:27;;;;;;;52.20;29.80;;;;;;;-3.68;100.00;97181.14;108361;1281;138387;-86
2024/01/12 00:06:54;;;;;;;48.90;28.70;;;;;;;-3.64;100.00;97177.89;108350;1283;22555;-86
2024/01/12 00:09:21;;;;;;;51.80;29.70;;;;;;;-3.61;100.00;97179.42;108311;1281;24355;-86
2024/01/12 00:11:48;;;;;;;59.10;32.80;;;;;;;-3.62;100.00;97180.15;108361;1281;138730;-86
2024/01/12 00:14:15;;;;;;;71.10;35.20;;;;;;;-3.61;100.00;97182.95;108293;1281;22522;-86
2024/01/12 00:16:44;;;;;;;53.80;27.00;;;;;;;-3.53;100.00;97181.42;108214;1282;138628;-85
2024/01/12 00:19:11;;;;;;;58.70;29.00;;;;;;;-3.47;100.00;97183.11;108351;1282;26491;-86
2024/01/12 00:21:37;;;;;;;46.00;24.60;;;;;;;-3.46;100.00;97185.29;108373;1283;23947;-86
2024/01/12 00:24:04;;;;;;;63.00;32.10;;;;;;;-3.50;100.00;97184.15;108173;1283;140187;-84
2024/01/12 00:26:31;;;;;;;65.80;31.90;;;;;;;-3.52;100.00;97186.63;108307;1282;22528;-84
2024/01/12 00:28:58;;;;;;;53.90;29.80;;;;;;;-3.56;100.00;97188.36;108263;1281;138462;-84
2024/01/12 00:31:24;;;;;;;57.10;28.90;;;;;;;-3.57;100.00;97189.91;108451;1283;22538;-84
2024/01/12 00:33:51;;;;;;;51.20;30.50;;;;;;;-3.59;100.00;97189.48;108296;1281;138662;-84
2024/01/12 00:36:18;;;;;;;59.30;31.90;;;;;;;-3.61;100.00;97192.77;108338;1283;22565;-84
2024/01/12 00:38:44;;;;;;;52.80;30.50;;;;;;;-3.59;100.00;97194.92;108502;1281;22572;-84
2024/01/12 00:41:11;;;;;;;53.80;30.80;;;;;;;-3.56;100.00;97196.80;108215;1278;139212;-84
2024/01/12 00:43:38;;;;;;;57.20;30.30;;;;;;;-3.52;100.00;97200.14;108636;1283;22808;-85
2024/01/12 00:46:05;;;;;;;50.50;29.10;;;;;;;-3.46;100.00;97205.25;108880;1281;138893;-85
2024/01/12 00:48:32;;;;;;;57.80;31.10;;;;;;;-3.45;100.00;97202.70;109131;1282;22595;-85
2024/01/12 00:50:59;;;;;;;45.80;26.60;;;;;;;-3.46;100.00;97207.13;108661;1282;22534;-85
2024/01/12 00:53:26;;;;;;;53.30;30.40;;;;;;;-3.46;100.00;97203.89;108292;1282;138064;-84
2024/01/12 00:55:52;;;;;;;42.70;24.20;;;;;;;-3.46;100.00;97216.45;108508;1272;22527;-84
2024/01/12 00:58:19;;;;;;;45.60;25.00;;;;;;;-3.48;100.00;97222.30;108672;1267;138730;-85
2024/01/12 01:00:46;;;;;;;50.10;27.30;;;;;;;-3.49;100.00;97225.59;108949;1281;22561;-85
2024/01/12 01:03:13;;;;;;;45.90;26.00;;;;;;;-3.49;100.00;97228.77;109115;1282;22897;-85
2024/01/12 01:05:40;;;;;;;51.80;29.20;;;;;;;-3.48;100.00;97228.76;108574;1281;137545;-84
2024/01/12 01:08:07;;;;;;;47.90;27.20;;;;;;;-3.47;100.00;97231.77;108382;1282;22576;-84
2024/01/12 01:10:34;;;;;;;47.40;25.70;;;;;;;-3.47;100.00;97233.11;108793;1281;137788;-85
2024/01/12 01:13:05;;;;;;;52.60;29.10;;;;;;;-3.48;100.00;97231.80;109175;1282;25300;-86
2024/01/12 01:15:33;;;;;;;57.30;29.80;;;;;;;-3.43;100.00;97235.60;109214;1278;22548;-85
2024/01/12 01:18:00;;;;;;;58.30;32.40;;;;;;;-3.37;100.00;97232.98;108668;1283;138489;-87
2024/01/12 01:20:26;;;;;;;48.50;28.50;;;;;;;-3.33;100.00;97237.80;108405;1281;22659;-87
2024/01/12 01:22:53;;;;;;;43.80;26.00;;;;;;;-3.28;100.00;97238.23;108258;1283;138742;-87
2024/01/12 01:25:19;;;;;;;42.90;25.00;;;;;;;-3.27;100.00;97235.65;108318;1281;25434;-87
2024/01/12 01:27:46;;;;;;;44.10;24.80;;;;;;;-3.30;100.00;97231.42;108273;1281;138634;-86
2024/01/12 01:30:14;;;;;;;42.10;26.90;;;;;;;-3.35;100.00;97228.45;108326;1281;22574;-85
2024/01/12 01:32:41;;;;;;;45.80;26.50;;;;;;;-3.36;100.00;97226.13;108860;1283;22579;-86
2024/01/12 01:35:08;;;;;;;42.60;26.40;;;;;;;-3.35;100.00;97225.56;109098;1276;138967;-86
2024/01/12 01:37:35;;;;;;;51.00;30.90;;;;;;;-3.36;100.00;97223.92;109169;1282;22760;-86
2024/01/12 01:40:05;;;;;;;58.50;33.20;;;;;;;-3.36;100.00;97218.66;109070;1281;137453;-86
2024/01/12 01:42:32;;;;;;;58.20;32.60;;;;;;;-3.40;100.00;97218.18;109123;1282;22561;-86
2024/01/12 01:44:58;;;;;;;54.90;30.20;;;;;;;-3.40;100.00;97207.35;109138;1282;22600;-86
2024/01/12 01:47:26;;;;;;;59.40;32.70;;;;;;;-3.35;100.00;97205.55;108999;1282;138192;-86
2024/01/12 01:49:57;;;;;;;48.70;27.40;;;;;;;-3.31;100.00;97206.21;109265;1282;22541;-86
2024/01/12 01:52:25;;;;;;;56.50;30.30;;;;;;;-3.31;100.00;97209.77;109009;1282;137771;-86
2024/01/12 01:54:54;;;;;;;56.20;29.90;;;;;;;-3.27;100.00;97214.69;109210;1283;22555;-86
2024/01/12 01:57:21;;;;;;;53.60;30.90;;;;;;;-3.23;100.00;97211.23;109182;1282;22579;-86
2024/01/12 01:59:47;;;;;;;48.40;26.40;;;;;;;-3.14;100.00;97211.96;108421;1282;138718;-85
2024/01/12 02:02:14;;;;;;;58.90;31.90;;;;;;;-3.08;100.00;97213.37;108327;1279;22544;-85
2024/01/12 02:04:41;;;;;;;47.90;27.50;;;;;;;-3.02;100.00;97208.98;108321;1279;138859;-85
2024/01/12 02:07:08;;;;;;;48.40;28.50;;;;;;;-3.04;100.00;97205.36;108311;1283;23163;-87
2024/01/12 02:09:35;;;;;;;46.80;28.40;;;;;;;-3.05;100.00;97206.63;108348;1275;22528;-87
2024/01/12 02:12:06;;;;;;;50.50;29.00;;;;;;;-3.10;100.00;97207.51;108220;1278;137806;-87
2024/01/12 02:14:32;;;;;;;48.00;29.20;;;;;;;-3.11;100.00;97207.38;108513;1276;22588;-86
2024/01/12 02:16:59;;;;;;;41.70;22.80;;;;;;;-3.10;100.00;97212.79;108557;1279;138255;-87
2024/01/12 02:19:26;;;;;;;52.10;27.30;;;;;;;-3.15;100.00;97210.14;108383;1282;23788;-87
2024/01/12 02:21:52;;;;;;;56.40;30.40;;;;;;;-3.21;100.00;97212.00;108352;1279;138087;-87
2024/01/12 02:24:19;;;;;;;60.60;33.10;;;;;;;-3.20;100.00;97209.05;108315;1283;25454;-88
2024/01/12 02:26:45;;;;;;;62.20;31.50;;;;;;;-3.20;100.00;97214.65;108217;1281;22590;-87
2024/01/12 02:29:12;;;;;;;58.70;32.20;;;;;;;-3.17;100.00;97221.44;108238;1281;139026;-87
2024/01/12 02:31:39;;;;;;;57.20;31.20;;;;;;;-3.10;100.00;97221.07;108331;1281;22570;-87
2024/01/12 02:34:06;;;;;;;53.80;29.30;;;;;;;-3.00;100.00;97218.21;108258;1281;138859;-87
2024/01/12 02:36:33;;;;;;;49.40;28.40;;;;;;;-2.97;100.00;97218.75;108344;1281;22561;-87
2024/01/12 02:38:59;;;;;;;56.50;29.70;;;;;;;-2.99;100.00;97220.70;108371;1278;22552;-87
2024/01/12 02:41:26;;;;;;;53.50;29.00;;;;;;;-2.99;100.00;97219.36;108344;1281;137936;-87
2024/01/12 02:43:53;;;;;;;51.00;30.70;;;;;;;-3.03;100.00;97221.23;108342;1282;26879;-87
2024/01/12 02:46:20;;;;;;;49.50;28.60;;;;;;;-3.02;100.00;97220.70;108362;1274;138667;-87
2024/01/12 02:48:47;;;;;;;57.30;31.40;;;;;;;-3.02;100.00;97227.61;108980;1282;22495;-86
2024/01/12 02:51:14;;;;;;;46.70;25.40;;;;;;;-3.06;100.00;97230.39;109070;1281;22630;-86
2024/01/12 02:53:41;;;;;;;56.20;30.80;;;;;;;-3.11;100.00;97219.95;108963;1280;138131;-85
2024/01/12 02:56:08;;;;;;;54.80;29.00;;;;;;;-3.13;100.00;97214.82;109110;1281;22553;-86
2024/01/12 02:58:34;;;;;;;52.10;30.50;;;;;;;-3.14;100.00;97215.38;108871;1282;137714;-86
2024/01/12 03:01:02;;;;;;;49.70;26.60;;;;;;;-3.11;100.00;97218.94;108356;1281;22524;-86
2024/01/12 03:03:28;;;;;;;53.50;28.30;;;;;;;-3.06;100.00;97224.95;109064;1282;23937;-86
2024/01/12 03:05:58;;;;;;;57.20;29.20;;;;;;;-3.00;100.00;97225.16;109017;1281;137785;-86
2024/01/12 03:08:25;;;;;;;55.20;30.60;;;;;;;-2.94;100.00;97232.30;109030;1283;22543;-87
2024/01/12 03:10:53;;;;;;;49.60;28.20;;;;;;;-2.87;100.00;97239.28;108195;1281;139000;-87
2024/01/12 03:13:20;;;;;;;45.30;24.30;;;;;;;-2.87;100.00;97239.94;108558;1281;23857;-87
2024/01/12 03:15:47;;;;;;;40.30;23.70;;;;;;;-2.89;100.00;97243.79;108350;1278;138223;-86
2024/01/12 03:18:14;;;;;;;48.40;29.20;;;;;;;-2.93;100.00;97239.06;108171;1282;22610;-87
2024/01/12 03:20:40;;;;;;;38.60;23.50;;;;;;;-2.98;100.00;97238.98;108335;1276;22552;-87
2024/01/12 03:23:07;;;;;;;42.40;24.10;;;;;;;-3.03;100.00;97236.32;108255;1282;138362;-87
2024/01/12 03:25:34;;;;;;;45.10;26.10;;;;;;;-3.05;100.00;97232.05;108307;1283;22568;-87
2024/01/12 03:28:00;;;;;;;45.00;24.10;;;;;;;-3.06;100.00;97216.31;108342;1275;138120;-87
2024/01/12 03:30:27;;;;;;;46.30;26.00;;;;;;;-3.09;100.00;97217.81;108392;1281;25332;-86
2024/01/12 03:32:54;;;;;;;41.30;24.50;;;;;;;-3.11;100.00;97213.33;108368;1282;22585;-87
2024/01/12 03:35:20;;;;;;;46.90;26.30;;;;;;;-3.09;100.00;97206.62;108384;1281;138706;-86
2024/01/12 03:37:47;;;;;;;41.30;26.20;;;;;;;-3.09;100.00;97196.63;108320;1282;22528;-86
2024/01/12 03:40:13;;;;;;;46.00;24.80;;;;;;;-3.11;100.00;97200.11;108244;1279;139006;-85
2024/01/12 03:42:40;;;;;;;45.10;24.90;;;;;;;-3.09;100.00;97203.91;108468;1282;22547;-85
2024/01/12 03:45:08;;;;;;;46.20;26.50;;;;;;;-3.04;100.00;97206.00;108807;1282;22549;-86
2024/01/12 03:47:35;;;;;;;40.50;26.00;;;;;;;-3.03;100.00;97200.55;109045;1282;137710;-84
2024/01/12 03:50:02;;;;;;;38.40;26.20;;;;;;;-3.05;100.00;97205.25;108481;1279;22559;-86
2024/01/12 03:52:28;;;;;;;38.90;25.20;;;;;;;-3.07;100.00;97208.04;108280;1279;138274;-86
2024/01/12 03:54:55;;;;;;;41.70;25.70;;;;;;;-3.07;100.00;97210.27;108338;1279;26641;-86
2024/01/12 03:57:22;;;;;;;46.70;26.60;;;;;;;-3.08;100.00;97215.09;109840;1281;22157;-86
2024/01/12 03:59:48;;;;;;;39.00;23.70;;;;;;;-3.08;100.00;97228.09;109848;1281;137964;-86
2024/01/12 04:02:15;;;;;;;33.70;20.50;;;;;;;-3.06;100.00;97235.84;109364;1282;23867;-86
2024/01/12 04:04:42;;;;;;;42.60;23.60;;;;;;;-3.08;100.00;97236.60;108288;1277;138672;-83
2024/01/12 04:07:08;;;;;;;37.40;21.60;;;;;;;-3.09;100.00;97230.19;108452;1267;22528;-84
2024/01/12 04:09:35;;;;;;;39.60;23.50;;;;;;;-3.11;100.00;97232.50;108568;1279;22548;-83
2024/01/12 04:12:03;;;;;;;41.80;24.30;;;;;;;-3.11;100.00;97234.02;108253;1277;138832;-84
2024/01/12 04:14:30;;;;;;;40.70;24.70;;;;;;;-3.07;100.00;97232.80;108504;1275;24040;-84
2024/01/12 04:16:57;;;;;;;40.30;23.30;;;;;;;-3.02;100.00;97235.58;108303;1279;138659;-84
2024/01/12 04:19:26;;;;;;;28.90;17.00;;;;;;;-2.96;100.00;97239.90;108971;1282;22498;-85
2024/01/12 04:21:52;;;;;;;35.00;20.10;;;;;;;-2.97;100.00;97248.58;108545;1280;138632;-84
2024/01/12 04:24:19;;;;;;;34.30;22.00;;;;;;;-2.95;100.00;97247.98;110005;1277;22182;-84
2024/01/12 04:26:46;;;;;;;33.80;20.80;;;;;;;-2.92;100.00;97253.23;109923;1277;22221;-84
2024/01/12 04:29:12;;;;;;;32.90;19.90;;;;;;;-2.95;100.00;97253.23;109817;1277;138769;-84
2024/01/12 04:31:40;;;;;;;35.00;21.20;;;;;;;-3.01;100.00;97254.88;109822;1276;23178;-84
2024/01/12 04:34:07;;;;;;;34.10;20.00;;;;;;;-3.04;100.00;97250.79;108650;1282;138520;-84
2024/01/12 04:36:33;;;;;;;31.70;20.00;;;;;;;-3.03;100.00;97250.58;108361;1281;22552;-86
2024/01/12 04:39:00;;;;;;;33.70;20.60;;;;;;;-3.04;100.00;97249.27;108398;1282;22602;-86
2024/01/12 04:41:27;;;;;;;28.40;17.00;;;;;;;-3.05;100.00;97251.70;108279;1281;139233;-85
2024/01/12 04:43:54;;;;;;;29.00;17.00;;;;;;;-3.04;100.00;97251.66;108329;1283;22600;-85
2024/01/12 04:46:21;;;;;;;32.30;21.10;;;;;;;-3.07;100.00;97248.22;108269;1281;138569;-86
2024/01/12 04:48:47;;;;;;;32.60;21.50;;;;;;;-3.08;100.00;97252.20;108321;1283;22938;-85
2024/01/12 04:51:14;;;;;;;31.40;19.90;;;;;;;-3.08;100.00;97247.63;108325;1281;22545;-85
2024/01/12 04:53:40;;;;;;;34.70;21.30;;;;;;;-3.06;100.00;97246.67;108291;1282;138116;-86
2024/01/12 04:56:07;;;;;;;36.20;19.80;;;;;;;-3.02;100.00;97245.61;108381;1282;22526;-86
2024/01/12 04:58:34;;;;;;;35.10;20.30;;;;;;;-2.98;100.00;97247.80;108264;1277;138866;-86
2024/01/12 05:01:00;;;;;;;32.30;17.90;;;;;;;-2.98;100.00;97244.55;108516;1281;22549;-86
2024/01/12 05:03:27;;;;;;;39.40;23.40;;;;;;;-2.96;100.00;97247.15;108414;1276;22644;-86
2024/01/12 05:05:54;;;;;;;34.10;20.90;;;;;;;-2.98;100.00;97249.63;108278;1282;139510;-86
2024/01/12 05:08:20;;;;;;;28.30;17.70;;;;;;;-2.98;100.00;97247.14;109843;1282;22263;-86
2024/01/12 05:10:48;;;;;;;30.70;19.20;;;;;;;-3.00;100.00;97245.02;108526;1283;138530;-86
2024/01/12 05:13:15;;;;;;;29.10;19.30;;;;;;;-3.02;100.00;97245.63;108358;1283;22534;-85
2024/01/12 05:15:41;;;;;;;30.90;20.00;;;;;;;-3.05;100.00;97246.95;108325;1283;22548;-85
2024/01/12 05:18:08;;;;;;;26.50;19.10;;;;;;;-3.07;100.00;97254.48;108398;1282;22667;-85
2024/01/12 05:20:35;;;;;;;30.50;18.60;;;;;;;-3.05;100.00;97255.39;108412;1279;22573;-86
2024/01/12 05:23:03;;;;;;;24.60;16.00;;;;;;;-3.00;100.00;97257.55;108897;1277;138760;-86
2024/01/12 05:25:30;;;;;;;28.80;17.30;;;;;;;-2.98;100.00;97257.96;108345;1282;26615;-86
2024/01/12 05:27:57;;;;;;;29.20;19.40;;;;;;;-2.98;100.00;97260.31;108457;1277;138502;-85
2024/01/12 05:30:23;;;;;;;30.30;19.20;;;;;;;-2.96;100.00;97259.36;108472;1282;22536;-86
2024/01/12 05:32:50;;;;;;;26.20;17.00;;;;;;;-2.99;100.00;97259.68;108451;1280;22559;-85
2024/01/12 05:35:16;;;;;;;26.30;16.60;;;;;;;-2.98;100.00;97260.47;108297;1282;139326;-86
2024/01/12 05:37:43;;;;;;;30.10;18.00;;;;;;;-2.98;100.00;97268.46;108299;1275;24263;-86
2024/01/12 05:40:12;;;;;;;64.80;27.10;;;;;;;-3.00;100.00;97264.81;108219;1282;139095;-85
2024/01/12 05:42:38;;;;;;;53.00;26.40;;;;;;;-2.96;100.00;97263.97;108343;1283;22527;-84
2024/01/12 05:45:06;;;;;;;31.30;17.80;;;;;;;-2.96;100.00;97264.28;108301;1283;25255;-84
2024/01/12 05:47:33;;;;;;;28.90;18.10;;;;;;;-2.93;100.00;97270.25;108316;1282;138333;-84
2024/01/12 05:49:59;;;;;;;32.00;20.40;;;;;;;-2.93;100.00;97275.67;108399;1282;22681;-84
2024/01/12 05:52:27;;;;;;;34.10;19.40;;;;;;;-2.91;100.00;97277.77;108211;1282;138561;-83
2024/01/12 05:54:55;;;;;;;28.90;17.40;;;;;;;-2.90;100.00;97279.77;108348;1280;24789;-84
2024/01/12 05:57:21;;;;;;;31.80;21.30;;;;;;;-2.91;100.00;97280.00;108299;1283;24110;-84
2024/01/12 05:59:48;;;;;;;40.10;23.80;;;;;;;-2.92;100.00;97271.04;108276;1283;138643;-84
2024/01/12 06:02:15;;;;;;;38.20;22.80;;;;;;;-2.88;100.00;97273.92;108334;1283;22681;-84
2024/01/12 06:04:42;;;;;;;35.30;20.90;;;;;;;-2.84;100.00;97273.34;108384;1281;138969;-84
2024/01/12 06:07:08;;;;;;;59.20;27.80;;;;;;;-2.82;100.00;97273.60;108412;1282;22519;-85
2024/01/12 06:09:36;;;;;;;42.10;22.50;;;;;;;-2.81;100.00;97274.21;108603;1281;23155;-85
2024/01/12 06:12:03;;;;;;;40.00;21.20;;;;;;;-2.76;100.00;97280.75;109042;1279;137727;-85
2024/01/12 06:14:30;;;;;;;35.50;19.70;;;;;;;-2.74;100.00;97279.61;109155;1282;22577;-84
2024/01/12 06:16:56;;;;;;;26.30;15.60;;;;;;;-2.75;100.00;97281.04;109024;1282;137147;-85
2024/01/12 06:19:24;;;;;;;35.10;21.20;;;;;;;-2.77;100.00;97283.67;109055;1277;22587;-85
2024/01/12 06:21:51;;;;;;;36.70;22.40;;;;;;;-2.78;100.00;97283.21;108946;1263;139013;-86
2024/01/12 06:24:19;;;;;;;45.10;25.40;;;;;;;-2.81;100.00;97282.36;109158;1282;22531;-85
2024/01/12 06:26:45;;;;;;;41.00;23.00;;;;;;;-2.84;100.00;97278.92;109011;1282;22721;-85
2024/01/12 06:29:13;;;;;;;39.90;22.60;;;;;;;-2.85;100.00;97281.73;108987;1277;137967;-85
2024/01/12 06:31:39;;;;;;;49.00;24.50;;;;;;;-2.90;100.00;97287.72;109109;1276;22712;-85
2024/01/12 06:34:06;;;;;;;41.50;22.90;;;;;;;-2.89;100.00;97293.95;109081;1277;137764;-84
2024/01/12 06:36:33;;;;;;;47.60;26.40;;;;;;;-2.88;100.00;97294.09;109141;1282;25483;-85
2024/01/12 06:39:05;;;;;;;45.40;23.50;;;;;;;-2.88;100.00;97298.15;109178;1279;22685;-85
2024/01/12 06:41:32;;;;;;;53.50;25.50;;;;;;;-2.85;100.00;97296.80;108936;1281;138056;-85
2024/01/12 06:43:59;;;;;;;42.40;24.50;;;;;;;-2.82;100.00;97298.33;109048;1281;22678;-85
2024/01/12 06:46:26;;;;;;;46.10;25.10;;;;;;;-2.81;100.00;97302.19;108996;1282;138062;-85
2024/01/12 06:48:53;;;;;;;45.70;24.50;;;;;;;-2.83;100.00;97305.65;109202;1282;22572;-85
2024/01/12 06:51:23;;;;;;;51.00;27.20;;;;;;;-2.86;100.00;97307.20;109172;1278;22551;-85
2024/01/12 06:53:50;;;;;;;56.20;28.00;;;;;;;-2.90;100.00;97310.29;109199;1275;137360;-85
2024/01/12 06:56:21;;;;;;;56.30;27.80;;;;;;;-2.94;100.00;97309.44;109276;1276;26384;-85
2024/01/12 06:58:47;;;;;;;57.00;27.40;;;;;;;-2.93;100.00;97312.96;109160;1282;137781;-84
2024/01/12 07:01:18;;;;;;;55.90;28.10;;;;;;;-2.90;100.00;97307.42;109305;1261;22556;-84
2024/01/12 07:03:45;;;;;;;64.70;33.50;;;;;;;-2.85;100.00;97311.21;109027;1282;137783;-86
2024/01/12 07:06:17;;;;;;;59.20;29.00;;;;;;;-2.85;100.00;97310.02;109123;1282;22637;-85
2024/01/12 07:08:44;;;;;;;60.00;27.40;;;;;;;-2.86;100.00;97308.52;108741;1282;22608;-84
2024/01/12 07:11:11;;;;;;;55.80;28.10;;;;;;;-2.83;100.00;97314.34;108251;1277;138817;-86
2024/01/12 07:13:38;;;;;;;59.10;31.50;;;;;;;-2.82;100.00;97317.00;108305;1278;22548;-86
2024/01/12 07:16:05;;;;;;;54.60;27.90;;;;;;;-2.82;100.00;97314.30;108216;1279;138077;-86
2024/01/12 07:18:32;;;;;;;52.90;27.50;;;;;;;-2.85;100.00;97314.75;108406;1277;22536;-86
2024/01/12 07:21:03;;;;;;;59.60;32.20;;;;;;;-2.85;100.00;97316.13;108375;1281;22932;-86
2024/01/12 07:23:30;;;;;;;67.50;32.50;;;;;;;-2.85;100.00;97313.89;108269;1277;138344;-86
2024/01/12 07:25:58;;;;;;;68.00;35.60;;;;;;;-2.84;100.00;97318.96;108309;1281;22560;-86
2024/01/12 07:28:25;;;;;;;71.30;34.00;;;;;;;-2.83;100.00;97317.19;108174;1279;139045;-87
2024/01/12 07:30:55;;;;;;;63.70;31.20;;;;;;;-2.79;100.00;97318.70;108458;1277;23804;-85
2024/01/12 07:33:21;;;;;;;63.60;32.80;;;;;;;-2.75;100.00;97315.80;108389;1276;25460;-86
2024/01/12 07:35:48;;;;;;;72.70;35.70;;;;;;;-2.70;100.00;97314.70;108275;1282;138736;-86
2024/01/12 07:38:14;;;;;;;64.70;33.40;;;;;;;-2.64;100.00;97316.94;108381;1281;22556;-86
2024/01/12 07:40:41;;;;;;;69.50;34.30;;;;;;;-2.57;100.00;97320.29;108253;1277;138874;-86
2024/01/12 07:43:08;;;;;;;58.30;28.00;;;;;;;-2.51;100.00;97317.95;108393;1282;22548;-86
2024/01/12 07:45:34;;;;;;;65.20;30.90;;;;;;;-2.46;100.00;97317.35;108300;1278;23305;-86
2024/01/12 07:48:01;;;;;;;62.00;29.50;;;;;;;-2.45;100.00;97317.79;108219;1273;137756;-86
2024/01/12 07:50:27;;;;;;;51.70;25.80;;;;;;;-2.46;100.00;97317.15;108361;1280;23099;-85
2024/01/12 07:52:54;;;;;;;47.50;24.50;;;;;;;-2.46;100.00;97317.03;108270;1283;137950;-85
2024/01/12 07:55:21;;;;;;;55.60;28.60;;;;;;;-2.51;100.00;97317.63;108365;1278;23736;-85
2024/01/12 07:57:47;;;;;;;54.70;29.20;;;;;;;-2.57;100.00;97314.52;108203;1275;138499;-86
2024/01/12 08:00:15;;;;;;;61.70;30.80;;;;;;;-2.58;100.00;97314.23;108399;1281;22606;-86
2024/01/12 08:02:42;;;;;;;51.90;25.90;;;;;;;-2.55;100.00;97318.70;108396;1281;23884;-85
2024/01/12 08:05:09;;;;;;;59.20;30.30;;;;;;;-2.56;100.00;97321.42;108681;1283;138647;-86
2024/01/12 08:07:37;;;;;;;59.00;29.10;;;;;;;-2.57;100.00;97319.13;108369;1279;22532;-86
2024/01/12 08:10:05;;;;;;;58.50;27.80;;;;;;;-2.59;100.00;97321.77;108250;1276;138930;-86
2024/01/12 08:12:32;;;;;;;56.40;27.90;;;;;;;-2.60;100.00;97320.11;108267;1283;22589;-87
2024/01/12 08:14:58;;;;;;;58.20;28.80;;;;;;;-2.58;100.00;97316.98;108313;1283;22564;-86
2024/01/12 08:17:25;;;;;;;53.00;26.90;;;;;;;-2.57;100.00;97320.83;108278;1283;138206;-86
2024/01/12 08:19:52;;;;;;;50.30;25.80;;;;;;;-2.60;100.00;97316.71;108379;1282;22804;-86
2024/01/12 08:22:18;;;;;;;45.30;25.20;;;;;;;-2.61;100.00;97316.92;108301;1282;140075;-86
2024/01/12 08:24:45;;;;;;;57.30;27.00;;;;;;;-2.59;100.00;97318.38;108303;1280;23230;-86
2024/01/12 08:27:12;;;;;;;56.00;28.50;;;;;;;-2.58;100.00;97315.98;108320;1278;22545;-86
2024/01/12 08:29:38;;;;;;;44.90;22.40;;;;;;;-2.56;100.00;97318.41;108295;1277;138609;-85
2024/01/12 08:32:05;;;;;;;50.70;26.00;;;;;;;-2.54;100.00;97320.15;108387;1282;23278;-85
2024/01/12 08:34:32;;;;;;;43.00;24.10;;;;;;;-2.51;100.00;97319.50;108274;1276;139186;-86
2024/01/12 08:36:59;;;;;;;45.90;23.40;;;;;;;-2.45;100.00;97321.21;108349;1282;22537;-86
2024/01/12 08:39:26;;;;;;;44.50;23.30;;;;;;;-2.42;100.00;97319.16;108239;1283;22592;-86
2024/01/12 08:41:53;;;;;;;45.00;21.40;;;;;;;-2.38;100.00;97319.01;108220;1282;138179;-86
2024/01/12 08:44:20;;;;;;;35.20;19.40;;;;;;;-2.38;100.00;97322.91;108301;1282;22566;-86
2024/01/12 08:46:46;;;;;;;35.00;19.60;;;;;;;-2.42;100.00;97323.77;108321;1282;138038;-86
2024/01/12 08:49:13;;;;;;;40.90;20.60;;;;;;;-2.47;100.00;97323.66;108317;1283;22550;-86
2024/01/12 08:51:40;;;;;;;41.80;23.50;;;;;;;-2.47;100.00;97324.21;108283;1280;24178;-86
2024/01/12 08:54:06;;;;;;;47.00;25.10;;;;;;;-2.48;100.00;97326.95;108224;1283;138821;-86
2024/01/12 08:56:33;;;;;;;63.10;35.40;;;;;;;-2.44;100.00;97329.79;108399;1270;22542;-85
2024/01/12 08:58:59;;;;;;;49.30;30.60;;;;;;;-2.39;100.00;97327.23;108268;1282;138647;-85
2024/01/12 09:01:26;;;;;;;61.20;31.70;;;;;;;-2.36;100.00;97335.70;108343;1282;23430;-86
2024/01/12 09:03:53;;;;;;;50.20;28.60;;;;;;;-2.36;100.00;97336.04;108232;1277;138589;-86
2024/01/12 09:06:21;;;;;;;53.10;26.80;;;;;;;-2.35;100.00;97338.70;108259;1283;22845;-86
2024/01/12 09:08:47;;;;;;;49.10;25.30;;;;;;;-2.32;100.00;97343.08;108339;1282;25438;-86
2024/01/12 09:11:15;;;;;;;47.60;24.80;;;;;;;-2.31;100.00;97342.07;108914;1282;139049;-86
2024/01/12 09:13:41;;;;;;;53.30;28.10;;;;;;;-2.28;100.00;97340.52;108418;1282;22545;-86
2024/01/12 09:16:09;;;;;;;48.00;25.10;;;;;;;-2.27;100.00;97342.02;108219;1282;139277;-84
2024/01/12 09:18:36;;;;;;;44.60;22.90;;;;;;;-2.24;100.00;97346.12;108353;1282;24197;-83
2024/01/12 09:21:02;;;;;;;39.50;22.60;;;;;;;-2.23;100.00;97347.39;108365;1282;22523;-84
2024/01/12 09:23:29;;;;;;;39.70;23.10;;;;;;;-2.22;100.00;97346.83;108397;1276;138062;-85
2024/01/12 09:25:56;;;;;;;40.80;24.10;;;;;;;-2.27;100.00;97346.07;108326;1282;23853;-86
2024/01/12 09:28:22;;;;;;;46.20;23.80;;;;;;;-2.25;100.00;97350.71;108252;1275;138137;-85
2024/01/12 09:30:49;;;;;;;47.60;23.90;;;;;;;-2.22;100.00;97353.28;108302;1281;22725;-85
2024/01/12 09:33:16;;;;;;;37.90;21.10;;;;;;;-2.20;100.00;97354.05;108418;1281;22966;-86
2024/01/12 09:35:42;;;;;;;42.40;22.40;;;;;;;-2.14;100.00;97351.15;108400;1278;138718;-86
2024/01/12 09:38:09;;;;;;;41.90;22.90;;;;;;;-2.05;100.00;97352.73;108385;1282;22564;-86
2024/01/12 09:40:36;;;;;;;38.50;21.50;;;;;;;-2.00;100.00;97350.10;108190;1271;138794;-86
2024/01/12 09:43:02;;;;;;;37.60;21.90;;;;;;;-2.01;100.00;97349.95;108440;1281;22526;-86
2024/01/12 09:45:29;;;;;;;33.60;19.10;;;;;;;-2.01;100.00;97353.72;108495;1281;22749;-86
2024/01/12 09:47:56;;;;;;;35.60;21.30;;;;;;;-2.02;100.00;97356.31;108182;1282;138200;-86
2024/01/12 09:50:23;;;;;;;35.70;18.00;;;;;;;-2.00;100.00;97350.08;108276;1283;22632;-86
2024/01/12 09:52:50;;;;;;;28.30;16.80;;;;;;;-1.98;100.00;97347.60;108224;1282;139089;-87
2024/01/12 09:55:17;;;;;;;33.60;18.50;;;;;;;-1.95;100.00;97348.30;108430;1282;22592;-86
2024/01/12 09:57:56;;;;;;;33.60;17.90;;;;;;;-1.91;100.00;97348.46;108252;1277;138817;-86
2024/01/12 10:00:25;;;;;;;28.30;16.70;;;;;;;-1.91;100.00;97348.79;108331;1278;22571;-86
2024/01/12 10:02:52;;;;;;;33.00;18.20;;;;;;;-1.92;100.00;97350.54;108300;1261;22995;-86
2024/01/12 10:05:19;;;;;;;33.90;18.20;;;;;;;-1.91;100.00;97350.79;108330;1282;138685;-86
2024/01/12 10:07:46;;;;;;;30.80;17.50;;;;;;;-1.92;100.00;97352.91;108381;1282;22543;-85
2024/01/12 10:10:13;;;;;;;35.30;19.40;;;;;;;-1.88;100.00;97351.67;108272;1282;138173;-85
2024/01/12 10:12:50;;;;;;;34.30;20.20;;;;;;;-1.84;100.00;97349.23;108322;1282;22605;-85
2024/01/12 10:15:18;;;;;;;32.10;19.40;;;;;;;-1.81;100.00;97345.52;108336;1276;22929;-86
2024/01/12 10:17:44;;;;;;;32.30;18.60;;;;;;;-1.76;100.00;97339.48;108252;1282;139216;-87
2024/01/12 10:20:11;;;;;;;33.80;20.80;;;;;;;-1.72;100.00;97337.58;108621;1277;22545;-84
2024/01/12 10:22:38;;;;;;;32.80;18.90;;;;;;;-1.72;100.00;97335.70;108907;1282;137662;-85
2024/01/12 10:25:10;;;;;;;34.00;19.20;;;;;;;-1.64;100.00;97334.42;109065;1276;24216;-85
2024/01/12 10:27:37;;;;;;;29.70;16.60;;;;;;;-1.59;100.00;97332.75;109094;1282;22550;-86
2024/01/12 10:30:07;;;;;;;25.70;15.80;;;;;;;-1.57;100.00;97329.25;108877;1277;136822;-85
2024/01/12 10:32:34;;;;;;;33.10;19.20;;;;;;;-1.56;100.00;97330.92;108924;1284;22570;-86
2024/01/12 10:35:02;;;;;;;26.00;15.70;;;;;;;-1.58;100.00;97328.12;108897;1277;137405;-85
2024/01/12 10:37:32;;;;;;;30.10;18.00;;;;;;;-1.59;100.00;97324.79;109058;1283;22630;-85
2024/01/12 10:39:59;;;;;;;30.80;17.10;;;;;;;-1.51;100.00;97322.99;108857;1276;138644;-85
2024/01/12 10:42:26;;;;;;;25.80;15.60;;;;;;;-1.42;100.00;97321.98;108976;1280;23219;-85
2024/01/12 10:44:53;;;;;;;24.50;16.70;;;;;;;-1.37;100.00;97324.76;108995;1283;22591;-85
2024/01/12 10:47:23;;;;;;;27.50;18.60;;;;;;;-1.37;100.00;97324.61;108965;1283;137955;-84
2024/01/12 10:49:54;;;;;;;27.40;16.20;;;;;;;-1.38;100.00;97323.61;109007;1282;22593;-85
2024/01/12 10:52:28;;;;;;;23.90;14.80;;;;;;;-1.44;100.00;97324.50;108852;1274;138174;-86
2024/01/12 10:55:07;;;;;;;25.10;15.60;;;;;;;-1.49;100.00;97323.55;108419;1283;22557;-86
2024/01/12 10:57:34;;;;;;;26.30;16.50;;;;;;;-1.47;100.00;97319.70;108461;1282;24411;-86
2024/01/12 11:00:01;;;;;;;24.20;15.00;;;;;;;-1.51;100.00;97318.55;108313;1282;138801;-86